createdAt,value
2022-11-10T15:14:36.280Z,1.50
2022-11-10T15:18:37.995Z,1.30
2022-11-10T15:22:39.784Z,1.30
2022-11-10T15:26:41.627Z,1.50
2022-11-10T15:30:52.587Z,1.10
2022-11-10T15:35:08.079Z,0.90
2022-11-10T15:39:17.752Z,1.03
2022-11-10T15:43:27.411Z,1.30
2022-11-10T15:47:31.166Z,1.43
2022-11-10T15:51:32.721Z,1.20
2022-11-10T15:55:34.444Z,1.40
2022-11-10T15:59:35.961Z,1.43
2022-11-10T16:03:38.979Z,1.20
2022-11-10T16:07:40.527Z,1.40
2022-11-10T16:11:44.549Z,1.90
2022-11-10T16:15:46.443Z,1.33
2022-11-10T16:19:49.444Z,1.40
2022-11-10T16:23:52.187Z,2.00
2022-11-10T16:27:53.917Z,2.20
2022-11-10T16:31:55.441Z,1.83
2022-11-10T16:35:58.550Z,2.20
2022-11-10T16:40:01.338Z,1.83
2022-11-10T16:44:03.148Z,1.97
2022-11-10T16:48:06.576Z,3.47
2022-11-10T16:52:14.625Z,2.00
2022-11-10T16:56:16.976Z,1.87
2022-11-10T17:00:19.712Z,2.10
2022-11-10T17:04:21.291Z,2.10
2022-11-10T17:08:28.583Z,1.63
2022-11-10T17:12:30.297Z,1.73
2022-11-10T17:16:34.324Z,1.90
2022-11-10T17:20:39.371Z,2.13
2022-11-10T17:24:42.456Z,2.37
2022-11-10T17:28:44.422Z,2.07
2022-11-10T17:33:04.052Z,2.10
2022-11-10T17:37:06.302Z,2.30
2022-11-10T17:41:14.383Z,1.97
2022-11-10T17:45:18.930Z,2.47
2022-11-10T17:49:20.684Z,1.90
2022-11-10T17:53:25.019Z,1.87
2022-11-10T17:57:28.441Z,2.00
2022-11-10T18:01:30.090Z,2.10
2022-11-10T18:05:32.566Z,2.20
2022-11-10T18:09:34.248Z,2.10
2022-11-10T18:13:37.807Z,2.17
2022-11-10T18:17:39.445Z,1.97
2022-11-10T18:21:41.202Z,2.13
2022-11-10T18:25:43.989Z,2.07
2022-11-10T18:29:46.886Z,1.90
2022-11-10T18:33:48.477Z,2.53
2022-11-10T18:37:50.112Z,2.00
2022-11-10T18:41:51.654Z,2.07
2022-11-10T18:45:54.722Z,2.40
2022-11-10T18:49:56.271Z,1.90
2022-11-10T18:53:58.051Z,2.10
2022-11-10T18:57:59.572Z,2.60
2022-11-10T19:02:02.527Z,2.33
2022-11-10T19:06:04.750Z,2.33
2022-11-10T19:10:06.700Z,2.57
2022-11-10T19:14:08.543Z,4.03
2022-11-10T19:18:11.424Z,3.60
2022-11-10T19:22:12.936Z,2.50
2022-11-10T19:26:21.873Z,2.80
2022-11-10T19:30:24.413Z,2.60
2022-11-10T19:34:27.290Z,2.43
2022-11-10T19:38:28.846Z,2.40
2022-11-10T19:42:30.360Z,2.27
2022-11-10T19:46:32.000Z,2.40
2022-11-10T19:50:34.897Z,2.70
2022-11-10T19:54:36.452Z,2.53
2022-11-10T19:58:39.243Z,2.60
2022-11-10T20:02:45.339Z,2.80
2022-11-10T20:06:48.705Z,2.87
2022-11-10T20:10:50.283Z,2.63
2022-11-10T20:14:51.860Z,2.50
2022-11-10T20:18:53.693Z,2.60
2022-11-10T20:23:00.375Z,2.60
2022-11-10T20:27:01.951Z,2.73
2022-11-10T20:31:06.074Z,2.60
2022-11-10T20:35:07.925Z,2.67
2022-11-10T20:39:11.029Z,2.70
2022-11-10T20:43:12.716Z,2.50
2022-11-10T20:47:14.327Z,2.47
2022-11-10T20:51:17.704Z,2.40
2022-11-10T20:55:43.653Z,2.60
2022-11-10T20:59:42.416Z,3.03
2022-11-10T21:03:44.049Z,2.50
2022-11-10T21:07:45.613Z,2.40
2022-11-10T21:11:48.590Z,2.33
2022-11-10T21:15:51.570Z,2.70
2022-11-10T21:19:53.172Z,2.63
2022-11-10T21:23:54.735Z,2.77
2022-11-10T21:27:58.036Z,2.93
2022-11-10T21:31:59.598Z,3.03
2022-11-10T21:36:05.577Z,3.07
2022-11-10T21:40:08.074Z,2.33
2022-11-10T21:44:11.002Z,3.30
2022-11-10T21:48:12.524Z,2.97
2022-11-10T21:52:14.276Z,3.30
2022-11-10T21:56:15.868Z,3.03
2022-11-10T22:00:19.220Z,3.10
2022-11-10T22:04:20.754Z,3.30
2022-11-10T22:08:22.432Z,3.60
2022-11-10T22:12:24.149Z,3.13
2022-11-10T22:16:31.945Z,3.43
2022-11-10T22:20:33.715Z,3.77
2022-11-10T22:24:35.277Z,3.13
2022-11-10T22:28:37.171Z,4.10
2022-11-10T22:32:40.070Z,3.47
2022-11-10T22:36:41.897Z,3.40
2022-11-10T22:40:43.463Z,3.37
2022-11-10T22:44:45.027Z,3.30
2022-11-10T22:48:48.069Z,3.20
2022-11-10T22:52:50.945Z,2.97
2022-11-10T22:56:53.545Z,3.17
2022-11-10T23:01:03.674Z,3.70
2022-11-10T23:05:07.567Z,3.17
2022-11-10T23:09:09.562Z,3.47
2022-11-10T23:13:12.266Z,3.43
2022-11-10T23:17:13.827Z,3.57
2022-11-10T23:21:18.975Z,3.50
2022-11-10T23:25:20.736Z,3.30
2022-11-10T23:29:24.060Z,3.50
2022-11-10T23:33:29.988Z,3.30
2022-11-10T23:37:35.658Z,4.33
2022-11-10T23:41:37.395Z,3.20
2022-11-10T23:46:05.380Z,3.40
2022-11-10T23:50:02.236Z,3.40
2022-11-10T23:54:05.444Z,3.27
2022-11-10T23:58:07.263Z,3.40
